createdAt,value
2022-10-10T00:01:29.053Z,1015.99
2022-10-10T00:11:29.112Z,1016.02
2022-10-10T00:21:29.439Z,1016.01
2022-10-10T00:31:29.465Z,1015.99
2022-10-10T00:41:29.793Z,1016.00
2022-10-10T00:51:29.813Z,1016.03
2022-10-10T01:01:30.140Z,1016.01
2022-10-10T01:11:30.171Z,1015.96
2022-10-10T01:21:30.495Z,1015.98
2022-10-10T01:31:30.509Z,1015.93
2022-10-10T01:41:30.845Z,1015.86
2022-10-10T01:51:30.862Z,1015.88
2022-10-10T02:01:31.195Z,1015.82
2022-10-10T02:11:31.214Z,1015.85
2022-10-10T02:21:31.540Z,1015.88
2022-10-10T02:31:31.576Z,1015.78
2022-10-10T02:41:31.880Z,1015.81
2022-10-10T02:51:31.920Z,1015.80
2022-10-10T03:01:32.257Z,1015.79
2022-10-10T03:11:32.288Z,1015.82
2022-10-10T03:21:32.589Z,1015.82
2022-10-10T03:31:32.613Z,1015.77
2022-10-10T03:41:32.942Z,1015.76
2022-10-10T03:51:32.980Z,1015.85
2022-10-10T04:01:33.328Z,1015.83
2022-10-10T04:11:33.361Z,1015.84
2022-10-10T04:21:33.638Z,1015.86
2022-10-10T04:31:33.693Z,1015.80
2022-10-10T04:41:33.987Z,1015.73
2022-10-10T04:51:34.006Z,1015.67
2022-10-10T05:01:34.410Z,1015.73
2022-10-10T05:11:34.444Z,1015.71
2022-10-10T05:21:34.792Z,1015.69
2022-10-10T05:31:34.813Z,1015.72
2022-10-10T05:41:35.137Z,1015.90
2022-10-10T05:51:35.159Z,1015.93
2022-10-10T06:01:35.488Z,1015.99
2022-10-10T06:11:35.506Z,1016.02
2022-10-10T06:21:35.844Z,1016.00
2022-10-10T06:31:35.865Z,1016.13
2022-10-10T06:41:36.195Z,1016.27
2022-10-10T06:51:36.270Z,1016.35
2022-10-10T07:01:36.601Z,1016.37
2022-10-10T07:11:36.638Z,1016.42
2022-10-10T07:21:36.902Z,1016.51
2022-10-10T07:31:37.120Z,1016.59
2022-10-10T07:41:37.446Z,1016.62
2022-10-10T07:51:37.479Z,1016.68
2022-10-10T08:01:37.823Z,1016.72
2022-10-10T08:11:37.955Z,1016.71
2022-10-10T08:21:38.042Z,1016.67
2022-10-10T08:31:38.092Z,1016.60
2022-10-10T08:41:38.390Z,1016.67
2022-10-10T08:51:38.420Z,1016.70
2022-10-10T09:02:18.150Z,1016.76
2022-10-10T09:11:39.951Z,1016.72
2022-10-10T09:21:38.979Z,1016.75
2022-10-10T09:31:39.285Z,1016.76
2022-10-10T09:41:39.317Z,1016.75
2022-10-10T09:51:39.621Z,1016.79
2022-10-10T10:01:39.683Z,1016.86
2022-10-10T10:11:39.764Z,1016.75
2022-10-10T10:21:40.020Z,1016.80
2022-10-10T10:31:44.577Z,1016.80
2022-10-10T10:41:40.387Z,1016.91
2022-10-10T10:51:40.771Z,1016.90
2022-10-10T11:01:58.077Z,1016.77
2022-10-10T11:11:41.906Z,1016.66
2022-10-10T11:21:41.196Z,1016.70
2022-10-10T11:31:41.277Z,1016.57
2022-10-10T11:41:41.360Z,1016.49
2022-10-10T11:51:41.387Z,1016.52
2022-10-10T12:01:41.688Z,1016.45
2022-10-10T12:11:41.731Z,1016.36
2022-10-10T12:21:42.040Z,1016.30
2022-10-10T12:31:42.073Z,1016.34
2022-10-10T12:41:47.016Z,1016.30
2022-10-10T12:51:43.461Z,1016.23
2022-10-10T13:01:42.736Z,1016.20
2022-10-10T13:11:42.784Z,1016.23
2022-10-10T13:21:43.022Z,1016.23
2022-10-10T13:31:43.243Z,1016.23
2022-10-10T13:41:43.541Z,1016.37
2022-10-10T13:51:43.576Z,1016.42
2022-10-10T14:01:43.963Z,1016.46
2022-10-10T14:11:44.001Z,1016.32
2022-10-10T14:21:44.335Z,1016.42
2022-10-10T14:31:44.375Z,1016.39
2022-10-10T14:41:44.683Z,1016.48
2022-10-10T14:51:44.715Z,1016.42
2022-10-10T15:01:45.036Z,1016.38
2022-10-10T15:11:45.062Z,1016.34
2022-10-10T15:21:45.384Z,1016.34
2022-10-10T15:31:45.419Z,1016.39
2022-10-10T15:41:45.855Z,1016.28
2022-10-10T15:51:45.715Z,1016.35
2022-10-10T16:01:45.981Z,1016.36
2022-10-10T16:11:46.208Z,1016.43
2022-10-10T16:21:46.539Z,1016.46
2022-10-10T16:31:46.564Z,1016.58
2022-10-10T16:41:48.473Z,1016.68
2022-10-10T16:51:46.919Z,1016.69
2022-10-10T17:01:49.285Z,1016.77
2022-10-10T17:11:51.162Z,1016.89
2022-10-10T17:21:47.454Z,1017.06
2022-10-10T17:31:47.768Z,1017.32
2022-10-10T17:41:47.862Z,1017.40
2022-10-10T17:51:47.914Z,1017.47
2022-10-10T18:01:48.149Z,1017.55
2022-10-10T18:11:48.601Z,1017.61
2022-10-10T18:21:48.631Z,1017.74
2022-10-10T18:31:48.812Z,1017.76
2022-10-10T18:41:48.841Z,1017.79
2022-10-10T18:51:49.388Z,1017.69
2022-10-10T19:01:49.337Z,1017.81
2022-10-10T19:11:49.620Z,1017.87
2022-10-10T19:21:49.527Z,1017.93
2022-10-10T19:31:49.866Z,1017.99
2022-10-10T19:41:49.948Z,1017.99
2022-10-10T19:51:50.034Z,1018.04
2022-10-10T20:01:50.177Z,1018.17
2022-10-10T20:11:50.355Z,1018.30
2022-10-10T20:21:50.380Z,1018.34
2022-10-10T20:31:50.701Z,1018.40
2022-10-10T20:41:50.721Z,1018.47
2022-10-10T20:51:51.059Z,1018.55
2022-10-10T21:01:51.171Z,1018.58
2022-10-10T21:11:51.307Z,1018.65
2022-10-10T21:21:51.329Z,1018.81
2022-10-10T21:31:51.649Z,1018.85
2022-10-10T21:41:51.679Z,1018.96
2022-10-10T21:51:51.998Z,1019.01
2022-10-10T22:01:52.021Z,1019.04
2022-10-10T22:11:52.345Z,1019.14
2022-10-10T22:21:52.366Z,1019.06
2022-10-10T22:31:52.699Z,1019.05
2022-10-10T22:41:52.726Z,1019.15
2022-10-10T22:51:53.048Z,1019.18
2022-10-10T23:01:53.061Z,1019.25
2022-10-10T23:11:53.390Z,1019.41
2022-10-10T23:21:53.439Z,1019.31
2022-10-10T23:31:53.747Z,1019.25
2022-10-10T23:41:53.798Z,1019.28
2022-10-10T23:51:54.101Z,1019.41
